Aeroporto :
LOGIN :

Iscrizione | Disclaimer

   EN    FR    IT 

 










Sommario :    VFR   VFR Marginale   IFR   IFR Intensivo   IFR Molto Intensivo
Visibilità : 
Base nubi : 
>= 8 km
>= 3000ft
5 / 8 km
1000 / 3000 ft
1500m / 5 km
500 / 1000 ft
800 / 1500m
200 / 500 ft
< 800m
< 200 ft
Simboli :   Temporali  Nebbia  Neve Forte  Precipitazioni Forti  Vento > 20 kt
SIGMETs :   Varie  Temporali  Ghiacco  Turbolenza  Onda orograficha  Ceneri Vulcaniche






- Altitudine del aeroporto : 70 ft
- Codice IATA : WBG


ETNS - Schleswig

ULTIMO METAR :
  • 130820Z 12012KT 9999 SCT011 01/M01 Q0981 BLU+

METARs OBSOLETI :
  • 130720Z 12012KT 9999 FEW011 01/M01 Q0981 BLU+
  • 130620Z 13012KT 9999 FEW180 01/M01 Q0981 BLU+

TAF TAF ETNS
Valido dal 13 a 09 ore il 13 a 18 ore UTC


130813Z 1309/1318 12012G22KT 9999 NSW FEW010 SCT160
BECMG 1310/1312 11015KT 9999 NSW SCT010 BKN130
BECMG 1313/1315 12012KT 4000 -RADZ BKN010
TEMPO 1315/1318 10010KT 2000 RASN BKN004 BY ETGL



MetMap, La meteo Aeronautica in un colpo d'occhio ! - Copyright ORBIFLY Dicembre 2007 - Disclaimer

ORBIFLY MET'MAP TEAM :

Programmazione e sviluppo : Alexandra Zaïnal
Concezione : Baudouin d'Aumeries
Aiuto per la programmazione : Marc-Olivier Méhu
Supporto tecnico e logistico : Manuel Goepfert
Aiuto per la traduzione : Arnaldo La Scala

Contatto : metmap@orbifly.com




FONTI E CREDITI :

   NOAA